createdAt,value
2022-08-30T00:01:03.175Z,99.90
2022-08-30T00:03:35.027Z,99.90
2022-08-30T00:06:02.299Z,99.90
2022-08-30T00:08:29.367Z,99.90
2022-08-30T00:10:56.338Z,99.90
2022-08-30T00:13:23.556Z,99.90
2022-08-30T00:15:50.979Z,99.90
2022-08-30T00:18:20.543Z,99.90
2022-08-30T00:20:52.097Z,99.90
2022-08-30T00:23:19.507Z,99.90
2022-08-30T00:25:46.509Z,99.90
2022-08-30T00:28:14.652Z,99.90
2022-08-30T00:30:43.094Z,99.90
2022-08-30T00:33:10.878Z,99.90
2022-08-30T00:35:39.933Z,99.90
2022-08-30T00:38:08.532Z,99.90
2022-08-30T00:40:35.860Z,99.90
2022-08-30T00:43:06.521Z,99.90
2022-08-30T00:45:36.682Z,99.90
2022-08-30T00:48:04.944Z,99.90
2022-08-30T00:50:36.630Z,99.90
2022-08-30T00:53:07.318Z,99.90
2022-08-30T00:55:34.487Z,99.90
2022-08-30T00:58:08.264Z,99.90
2022-08-30T01:00:35.836Z,99.90
2022-08-30T01:03:02.904Z,99.90
2022-08-30T01:05:30.224Z,99.90
2022-08-30T01:07:57.349Z,99.90
2022-08-30T01:10:24.313Z,99.90
2022-08-30T01:12:51.177Z,99.90
2022-08-30T01:15:18.248Z,99.90
2022-08-30T01:17:46.845Z,99.90
2022-08-30T01:20:51.848Z,99.90
2022-08-30T01:23:21.177Z,99.90
2022-08-30T01:25:50.548Z,99.90
2022-08-30T01:28:25.012Z,99.90
2022-08-30T01:30:52.881Z,99.90
2022-08-30T01:33:21.571Z,99.90
2022-08-30T01:35:53.315Z,99.90
2022-08-30T01:38:23.900Z,99.90
2022-08-30T01:40:51.307Z,99.90
2022-08-30T01:43:19.412Z,99.90
2022-08-30T01:45:46.249Z,99.90
2022-08-30T01:48:13.110Z,99.90
2022-08-30T01:50:41.730Z,99.90
2022-08-30T01:53:13.241Z,99.90
2022-08-30T01:55:40.631Z,99.90
2022-08-30T01:58:07.489Z,99.90
2022-08-30T02:00:34.203Z,99.90
2022-08-30T02:03:01.016Z,99.90
2022-08-30T02:05:27.880Z,99.90
2022-08-30T02:07:54.619Z,99.90
2022-08-30T02:10:21.765Z,99.90
2022-08-30T02:12:48.523Z,99.90
2022-08-30T02:15:16.072Z,99.90
2022-08-30T02:17:43.043Z,99.90
2022-08-30T02:20:11.126Z,99.90
2022-08-30T02:22:38.245Z,99.90
2022-08-30T02:25:06.714Z,99.90
2022-08-30T02:27:38.008Z,99.90
2022-08-30T02:30:07.650Z,99.90
2022-08-30T02:32:34.508Z,99.90
2022-08-30T02:35:01.336Z,99.90
2022-08-30T02:37:28.168Z,99.90
2022-08-30T02:39:54.957Z,99.90
2022-08-30T02:42:21.728Z,99.90
2022-08-30T02:44:48.500Z,99.90
2022-08-30T02:47:15.249Z,99.90
2022-08-30T02:49:42.021Z,99.90
2022-08-30T02:52:08.862Z,99.90
2022-08-30T02:54:36.001Z,99.90
2022-08-30T02:57:04.970Z,99.90
2022-08-30T02:59:33.018Z,99.90
2022-08-30T03:02:00.079Z,99.90
2022-08-30T03:04:26.968Z,99.90
2022-08-30T03:06:54.761Z,99.90
2022-08-30T03:09:22.244Z,99.90
2022-08-30T03:11:49.047Z,99.90
2022-08-30T03:14:15.833Z,99.90
2022-08-30T03:16:42.650Z,99.90
2022-08-30T03:19:09.492Z,99.90
2022-08-30T03:21:37.744Z,99.90
2022-08-30T03:24:04.688Z,99.90
2022-08-30T03:26:31.455Z,99.90
2022-08-30T03:28:59.056Z,99.90
2022-08-30T03:31:25.874Z,99.90
2022-08-30T03:33:52.785Z,99.90
2022-08-30T03:36:20.161Z,99.90
2022-08-30T03:38:47.479Z,99.90
2022-08-30T03:41:14.267Z,99.90
2022-08-30T03:43:41.048Z,99.90
2022-08-30T03:46:11.143Z,99.90
2022-08-30T03:48:37.986Z,99.90
2022-08-30T03:51:05.998Z,99.90
2022-08-30T03:53:33.133Z,99.90
2022-08-30T03:55:59.876Z,99.90
2022-08-30T03:58:26.703Z,99.90
2022-08-30T04:00:53.503Z,99.90
2022-08-30T04:03:25.767Z,99.90
2022-08-30T04:05:54.168Z,99.90
2022-08-30T04:08:21.205Z,99.90
2022-08-30T04:10:48.615Z,99.90
2022-08-30T04:13:16.101Z,99.90
2022-08-30T04:15:43.135Z,99.90
2022-08-30T04:18:10.240Z,99.90
2022-08-30T04:20:37.872Z,99.90
2022-08-30T04:23:07.852Z,99.90
2022-08-30T04:25:36.156Z,99.90
2022-08-30T04:28:04.352Z,99.90
2022-08-30T04:30:31.548Z,99.90
2022-08-30T04:32:59.022Z,99.90
2022-08-30T04:35:26.457Z,99.90
2022-08-30T04:37:53.330Z,99.90
2022-08-30T04:40:20.541Z,99.90
2022-08-30T04:42:47.678Z,99.90
2022-08-30T04:45:16.647Z,99.90
2022-08-30T04:47:44.056Z,99.90
2022-08-30T04:50:13.641Z,99.90
2022-08-30T04:52:40.488Z,99.90
2022-08-30T04:55:08.889Z,99.90
2022-08-30T04:57:38.267Z,99.90
2022-08-30T05:00:08.670Z,99.90
2022-08-30T05:02:35.387Z,99.90
2022-08-30T05:05:21.743Z,99.90
2022-08-30T05:07:48.556Z,99.90
2022-08-30T05:10:15.452Z,99.90
2022-08-30T05:12:43.290Z,99.90
2022-08-30T05:15:11.471Z,99.90
2022-08-30T05:17:40.032Z,99.90
2022-08-30T05:20:09.243Z,99.90
2022-08-30T05:22:37.764Z,99.90
2022-08-30T05:25:05.912Z,99.90
2022-08-30T05:27:32.874Z,99.90
2022-08-30T05:30:06.228Z,99.90
2022-08-30T05:32:33.140Z,99.90
2022-08-30T05:34:59.998Z,99.90
2022-08-30T05:37:27.119Z,99.90
2022-08-30T05:39:53.997Z,99.90
2022-08-30T05:42:20.832Z,99.90
2022-08-30T05:44:52.753Z,99.90
2022-08-30T05:47:20.164Z,99.90
2022-08-30T05:49:47.581Z,99.90
2022-08-30T05:52:15.537Z,99.90
2022-08-30T05:54:42.406Z,99.90
2022-08-30T05:57:09.166Z,99.90
2022-08-30T05:59:35.951Z,99.90
2022-08-30T06:02:02.814Z,99.90
2022-08-30T06:04:29.716Z,99.90
2022-08-30T06:06:56.444Z,92.60
2022-08-30T06:09:23.259Z,82.60
2022-08-30T06:11:50.126Z,72.30
2022-08-30T06:14:17.057Z,66.00
2022-08-30T06:16:45.811Z,59.50
2022-08-30T06:19:14.410Z,56.10
2022-08-30T06:21:42.028Z,53.00
2022-08-30T06:24:11.088Z,51.10
2022-08-30T06:26:41.531Z,49.50
2022-08-30T06:29:10.586Z,47.60
2022-08-30T06:31:37.421Z,46.70
2022-08-30T06:34:05.148Z,45.30
2022-08-30T06:36:32.323Z,44.10
2022-08-30T06:39:00.324Z,43.80
2022-08-30T06:41:30.374Z,42.10
2022-08-30T06:43:58.427Z,41.60
2022-08-30T06:46:32.523Z,40.60
2022-08-30T06:49:00.368Z,39.20
2022-08-30T06:51:34.413Z,38.60
2022-08-30T06:54:02.952Z,37.70
2022-08-30T06:56:31.239Z,37.10
2022-08-30T06:58:58.356Z,37.30
2022-08-30T07:01:28.023Z,35.80
2022-08-30T07:03:55.568Z,36.00
2022-08-30T07:06:23.285Z,34.80
2022-08-30T07:08:54.785Z,34.40
2022-08-30T07:11:36.258Z,34.00
2022-08-30T07:14:04.580Z,33.20
2022-08-30T07:16:31.809Z,31.90
2022-08-30T07:19:00.427Z,32.30
2022-08-30T07:21:31.830Z,32.00
2022-08-30T07:23:59.890Z,30.60
2022-08-30T07:26:33.590Z,30.40
2022-08-30T07:29:00.609Z,31.00
2022-08-30T07:31:27.390Z,30.30
2022-08-30T07:33:54.560Z,31.00
2022-08-30T07:36:22.056Z,30.20
2022-08-30T07:38:50.494Z,29.90
2022-08-30T07:41:25.035Z,30.00
2022-08-30T07:43:52.184Z,30.00
2022-08-30T07:46:20.014Z,29.60
2022-08-30T07:48:47.031Z,29.80
2022-08-30T07:51:17.440Z,29.10
2022-08-30T07:53:44.409Z,29.10
2022-08-30T07:56:11.873Z,28.60
2022-08-30T07:58:39.691Z,28.80
2022-08-30T08:01:09.159Z,29.30
2022-08-30T08:03:36.848Z,29.40
2022-08-30T08:06:06.360Z,29.30
2022-08-30T08:08:34.310Z,29.20
2022-08-30T08:11:16.710Z,29.20
2022-08-30T08:13:53.662Z,28.90
2022-08-30T08:16:24.342Z,28.10
2022-08-30T08:18:52.224Z,29.10
2022-08-30T08:21:19.052Z,27.80
2022-08-30T08:23:45.854Z,27.50
2022-08-30T08:26:12.746Z,28.10
2022-08-30T08:28:39.652Z,28.10
2022-08-30T08:31:23.562Z,28.70
2022-08-30T08:33:52.405Z,29.20
2022-08-30T08:36:19.244Z,29.70
2022-08-30T08:38:46.099Z,28.50
2022-08-30T08:41:51.000Z,29.30
2022-08-30T08:44:43.050Z,28.10
2022-08-30T08:47:25.022Z,28.30
2022-08-30T08:49:57.959Z,28.20
2022-08-30T08:52:49.105Z,28.50
2022-08-30T08:55:20.452Z,27.70
2022-08-30T08:57:47.856Z,28.60
2022-08-30T09:00:15.487Z,29.20
2022-08-30T09:02:46.184Z,30.00
2022-08-30T09:05:18.543Z,28.50
2022-08-30T09:07:51.543Z,28.60
2022-08-30T09:10:29.913Z,29.40
2022-08-30T09:13:05.279Z,29.50
2022-08-30T09:15:34.693Z,30.40
2022-08-30T09:18:10.201Z,29.70
2022-08-30T09:20:49.175Z,28.70
2022-08-30T09:23:15.889Z,28.80
2022-08-30T09:26:00.512Z,28.60
2022-08-30T09:28:33.015Z,30.00
2022-08-30T09:31:09.995Z,29.90
2022-08-30T09:33:38.767Z,29.40
2022-08-30T09:36:22.569Z,28.80
2022-08-30T09:38:59.596Z,31.20
2022-08-30T09:41:31.377Z,29.60
2022-08-30T09:44:17.694Z,28.00
2022-08-30T09:46:58.678Z,29.00
2022-08-30T09:49:41.513Z,28.60
2022-08-30T09:52:11.828Z,28.70
2022-08-30T09:54:56.005Z,28.50
2022-08-30T09:57:39.672Z,28.80
2022-08-30T10:00:17.727Z,28.80
2022-08-30T10:02:50.826Z,29.80
2022-08-30T10:05:17.556Z,29.60
2022-08-30T10:07:59.315Z,29.20
2022-08-30T10:10:45.660Z,30.00
2022-08-30T10:13:33.870Z,31.00
2022-08-30T10:16:12.655Z,30.60
2022-08-30T10:19:17.411Z,32.10
2022-08-30T10:21:49.468Z,33.00
2022-08-30T10:24:24.232Z,34.00
2022-08-30T10:27:31.706Z,33.90
2022-08-30T10:30:13.936Z,34.40
2022-08-30T10:32:50.460Z,33.80
2022-08-30T10:35:22.440Z,33.60
2022-08-30T10:38:01.759Z,35.40
2022-08-30T10:40:56.783Z,36.80
2022-08-30T10:43:42.749Z,36.80
2022-08-30T10:46:22.495Z,36.20
2022-08-30T10:48:49.628Z,37.50
2022-08-30T10:51:35.898Z,39.30
2022-08-30T10:54:21.655Z,39.20
2022-08-30T10:56:51.483Z,38.60
2022-08-30T10:59:19.641Z,40.00
2022-08-30T11:02:30.633Z,39.70
2022-08-30T11:05:00.724Z,37.80
2022-08-30T11:07:46.293Z,40.60
2022-08-30T11:10:26.663Z,40.60
2022-08-30T11:13:13.864Z,40.60
2022-08-30T11:16:04.145Z,39.70
2022-08-30T11:18:45.459Z,38.90
2022-08-30T11:21:23.596Z,38.70
2022-08-30T11:24:12.622Z,42.40
2022-08-30T11:26:45.920Z,40.90
2022-08-30T11:29:30.074Z,39.70
2022-08-30T11:32:20.723Z,40.80
2022-08-30T11:34:47.461Z,43.20
2022-08-30T11:37:37.140Z,42.70
2022-08-30T11:40:22.736Z,45.30
2022-08-30T11:42:52.322Z,46.20
2022-08-30T11:45:25.173Z,45.90
2022-08-30T11:47:59.600Z,46.10
2022-08-30T11:50:32.499Z,45.50
2022-08-30T11:53:14.481Z,47.10
2022-08-30T11:56:14.775Z,51.10
2022-08-30T11:59:18.982Z,48.00
2022-08-30T12:01:51.968Z,51.10
2022-08-30T12:04:22.853Z,51.50
2022-08-30T12:07:04.946Z,51.60
2022-08-30T12:09:34.517Z,53.00
2022-08-30T12:12:30.751Z,51.00
2022-08-30T12:14:58.100Z,50.40
2022-08-30T12:17:48.714Z,51.10
2022-08-30T12:20:29.083Z,50.90
2022-08-30T12:22:57.553Z,51.40
2022-08-30T12:25:30.839Z,52.20
2022-08-30T12:28:26.021Z,51.60
2022-08-30T12:30:53.931Z,51.80
2022-08-30T12:33:39.477Z,52.50
2022-08-30T12:36:29.939Z,52.00
2022-08-30T12:39:12.188Z,51.80
2022-08-30T12:41:43.279Z,54.60
2022-08-30T12:44:16.730Z,53.60
2022-08-30T12:46:49.123Z,52.70
2022-08-30T12:49:19.775Z,54.80
2022-08-30T12:51:47.235Z,53.80
2022-08-30T12:54:29.303Z,53.70
2022-08-30T12:57:19.264Z,54.80
2022-08-30T13:00:01.813Z,54.10
2022-08-30T13:02:52.069Z,53.30
2022-08-30T13:05:27.931Z,54.40
2022-08-30T13:08:09.989Z,55.20
2022-08-30T13:10:56.954Z,53.00
2022-08-30T13:13:35.111Z,54.10
2022-08-30T13:16:20.603Z,52.90
2022-08-30T13:18:53.293Z,54.10
2022-08-30T13:21:32.603Z,55.60
2022-08-30T13:24:04.953Z,56.50
2022-08-30T13:26:35.256Z,56.80
2022-08-30T13:29:05.679Z,55.30
2022-08-30T13:31:37.566Z,55.50
2022-08-30T13:34:05.062Z,55.30
2022-08-30T13:36:35.389Z,56.90
2022-08-30T13:39:04.304Z,55.40
2022-08-30T13:41:34.286Z,55.70
2022-08-30T13:44:13.127Z,55.70
2022-08-30T13:46:44.071Z,56.40
2022-08-30T13:52:20.309Z,56.90
2022-08-30T13:54:52.412Z,56.90
2022-08-30T14:00:14.900Z,57.80
2022-08-30T14:02:46.375Z,56.80
2022-08-30T14:05:46.694Z,57.00
2022-08-30T14:08:04.016Z,57.10
2022-08-30T14:10:32.837Z,56.60
2022-08-30T14:13:08.601Z,56.60
2022-08-30T14:15:41.289Z,56.60
2022-08-30T14:18:08.695Z,56.90
2022-08-30T14:20:38.392Z,56.70
2022-08-30T14:23:09.884Z,56.50
2022-08-30T14:25:37.933Z,56.10
2022-08-30T14:28:07.971Z,56.00
2022-08-30T14:30:36.693Z,55.90
2022-08-30T14:33:03.950Z,55.10
2022-08-30T14:35:31.141Z,54.00
2022-08-30T14:37:58.536Z,55.20
2022-08-30T14:40:26.004Z,54.20
2022-08-30T14:42:52.867Z,54.30
2022-08-30T14:45:19.771Z,54.70
2022-08-30T14:47:47.009Z,54.30
2022-08-30T14:50:15.176Z,54.70
2022-08-30T14:52:42.049Z,54.90
2022-08-30T14:55:12.875Z,55.30
2022-08-30T14:57:39.722Z,54.00
2022-08-30T15:00:09.825Z,53.80
2022-08-30T15:02:36.660Z,55.50
2022-08-30T15:05:04.087Z,55.30
2022-08-30T15:07:34.095Z,54.90
2022-08-30T15:10:01.168Z,54.70
2022-08-30T15:12:28.271Z,54.20
2022-08-30T15:14:55.876Z,52.90
2022-08-30T15:17:22.781Z,53.40
2022-08-30T15:19:49.633Z,52.90
2022-08-30T15:22:16.879Z,54.60
2022-08-30T15:24:43.693Z,54.50
2022-08-30T15:27:15.923Z,53.60
2022-08-30T15:29:42.689Z,53.80
2022-08-30T15:32:09.447Z,53.00
2022-08-30T15:34:36.406Z,54.00
2022-08-30T15:37:05.024Z,52.90
2022-08-30T15:39:32.321Z,53.20
2022-08-30T15:42:00.972Z,53.70
2022-08-30T15:44:32.195Z,54.00
2022-08-30T15:47:01.162Z,53.50
2022-08-30T15:49:28.142Z,53.20
2022-08-30T15:51:56.393Z,52.80
2022-08-30T15:54:24.015Z,52.80
2022-08-30T15:56:58.831Z,53.90
2022-08-30T15:59:27.822Z,53.30
2022-08-30T16:01:54.925Z,54.10
2022-08-30T16:04:24.123Z,53.80
2022-08-30T16:06:52.424Z,53.10
2022-08-30T16:09:19.445Z,53.50
2022-08-30T16:11:46.184Z,54.00
2022-08-30T16:14:13.580Z,54.60
2022-08-30T16:16:41.843Z,54.50
2022-08-30T16:19:09.536Z,55.30
2022-08-30T16:21:38.001Z,56.00
2022-08-30T16:24:06.762Z,55.70
2022-08-30T16:26:34.721Z,55.50
2022-08-30T16:29:01.796Z,55.80
2022-08-30T16:31:30.369Z,56.60
2022-08-30T16:34:02.563Z,56.70
2022-08-30T16:36:32.105Z,56.70
2022-08-30T16:38:59.525Z,56.90
2022-08-30T16:41:26.758Z,56.30
2022-08-30T16:43:54.475Z,56.60
2022-08-30T16:46:27.911Z,57.10
2022-08-30T16:48:57.246Z,57.30
2022-08-30T16:51:26.461Z,57.50
2022-08-30T16:53:58.566Z,57.30
2022-08-30T16:56:27.771Z,56.80
2022-08-30T16:59:01.442Z,57.40
2022-08-30T17:01:31.820Z,57.10
2022-08-30T17:03:59.329Z,57.00
2022-08-30T17:06:26.740Z,57.50
2022-08-30T17:08:56.089Z,57.90
2022-08-30T17:11:24.541Z,59.00
2022-08-30T17:13:51.925Z,59.50
2022-08-30T17:16:22.524Z,59.70
2022-08-30T17:18:55.248Z,59.90
2022-08-30T17:21:22.082Z,61.40
2022-08-30T17:23:50.378Z,61.60
2022-08-30T17:26:18.592Z,61.30
2022-08-30T17:28:45.734Z,62.00
2022-08-30T17:31:12.637Z,62.50
2022-08-30T17:33:43.060Z,62.80
2022-08-30T17:36:12.761Z,65.90
2022-08-30T17:38:44.820Z,65.40
2022-08-30T17:41:12.234Z,66.70
2022-08-30T17:43:39.638Z,66.20
2022-08-30T17:46:19.430Z,67.10
2022-08-30T17:48:46.691Z,66.10
2022-08-30T17:51:13.535Z,66.50
2022-08-30T17:53:40.483Z,66.60
2022-08-30T17:56:09.738Z,69.10
2022-08-30T17:58:36.915Z,69.00
2022-08-30T18:01:14.538Z,72.10
2022-08-30T18:03:45.218Z,74.30
2022-08-30T18:06:13.855Z,74.70
2022-08-30T18:08:41.076Z,76.40
2022-08-30T18:11:08.570Z,76.80
2022-08-30T18:13:35.463Z,76.90
2022-08-30T18:16:03.814Z,78.70
2022-08-30T18:18:31.307Z,80.50
2022-08-30T18:20:59.258Z,82.40
2022-08-30T18:23:27.208Z,82.80
2022-08-30T18:26:00.317Z,83.30
2022-08-30T18:28:28.877Z,84.20
2022-08-30T18:30:56.902Z,85.20
2022-08-30T18:33:25.677Z,86.10
2022-08-30T18:35:53.528Z,87.00
2022-08-30T18:38:23.627Z,88.90
2022-08-30T18:40:52.133Z,90.80
2022-08-30T18:43:24.621Z,92.00
2022-08-30T18:45:57.608Z,93.70
2022-08-30T18:48:27.222Z,95.10
2022-08-30T18:50:54.320Z,97.30
2022-08-30T18:53:28.400Z,99.90
2022-08-30T18:55:57.256Z,99.90
2022-08-30T18:58:24.097Z,99.90
2022-08-30T19:00:51.131Z,99.90
2022-08-30T19:03:18.817Z,99.90
2022-08-30T19:05:46.158Z,99.90
2022-08-30T19:08:13.663Z,99.90
2022-08-30T19:10:41.019Z,99.90
2022-08-30T19:13:08.514Z,99.90
2022-08-30T19:15:35.944Z,99.90
2022-08-30T19:18:16.744Z,99.90
2022-08-30T19:20:45.097Z,99.90
2022-08-30T19:23:12.466Z,99.90
2022-08-30T19:25:43.148Z,99.90
2022-08-30T19:28:10.684Z,99.90
2022-08-30T19:30:38.056Z,99.90
2022-08-30T19:33:12.815Z,99.90
2022-08-30T19:35:39.619Z,99.90
2022-08-30T19:38:06.629Z,99.90
2022-08-30T19:40:33.528Z,99.90
2022-08-30T19:43:00.468Z,99.90
2022-08-30T19:45:28.039Z,99.90
2022-08-30T19:47:56.712Z,99.90
2022-08-30T19:50:24.372Z,99.90
2022-08-30T19:52:54.785Z,99.90
2022-08-30T19:55:28.166Z,99.90
2022-08-30T19:57:57.251Z,99.90
2022-08-30T20:00:24.086Z,99.90
2022-08-30T20:02:51.344Z,99.90
2022-08-30T20:05:19.016Z,99.90
2022-08-30T20:07:46.006Z,99.90
2022-08-30T20:10:15.307Z,99.90
2022-08-30T20:12:45.470Z,99.90
2022-08-30T20:15:14.687Z,99.90
2022-08-30T20:18:02.714Z,99.90
2022-08-30T20:20:30.303Z,99.90
2022-08-30T20:22:57.076Z,99.90
2022-08-30T20:25:24.361Z,99.90
2022-08-30T20:27:51.265Z,99.90
2022-08-30T20:30:19.174Z,99.90
2022-08-30T20:32:46.892Z,99.90
2022-08-30T20:35:17.730Z,99.90
2022-08-30T20:37:45.646Z,99.90
2022-08-30T20:40:15.997Z,99.90
2022-08-30T20:42:45.725Z,99.90
2022-08-30T20:45:17.277Z,99.90
2022-08-30T20:47:44.974Z,99.90
2022-08-30T20:50:15.676Z,99.90
2022-08-30T20:52:42.659Z,99.90
2022-08-30T20:55:10.423Z,99.90
2022-08-30T20:57:37.333Z,99.90
2022-08-30T21:00:08.662Z,99.90
2022-08-30T21:02:37.080Z,99.90
2022-08-30T21:05:11.589Z,99.90
2022-08-30T21:07:38.708Z,99.90
2022-08-30T21:10:06.093Z,99.90
2022-08-30T21:12:32.913Z,99.90
2022-08-30T21:15:07.358Z,99.90
2022-08-30T21:17:42.404Z,99.90
2022-08-30T21:20:10.057Z,99.90
2022-08-30T21:22:38.280Z,99.90
2022-08-30T21:25:05.860Z,99.90
2022-08-30T21:27:32.627Z,99.90
2022-08-30T21:29:59.756Z,99.90
2022-08-30T21:32:26.584Z,99.90
2022-08-30T21:35:11.975Z,99.90
2022-08-30T21:37:38.733Z,99.90
2022-08-30T21:40:05.923Z,99.90
2022-08-30T21:42:32.767Z,99.90
2022-08-30T21:44:59.555Z,99.90
2022-08-30T21:47:26.316Z,99.90
2022-08-30T21:49:53.042Z,99.90
2022-08-30T21:52:19.839Z,99.90
2022-08-30T21:54:46.693Z,99.90
2022-08-30T21:57:15.292Z,99.90
2022-08-30T21:59:42.175Z,99.90
2022-08-30T22:02:09.206Z,99.90
2022-08-30T22:04:36.017Z,99.90
2022-08-30T22:07:03.177Z,99.90
2022-08-30T22:09:29.959Z,99.90
2022-08-30T22:11:57.495Z,99.90
2022-08-30T22:14:26.534Z,99.90
2022-08-30T22:16:53.912Z,99.90
2022-08-30T22:19:23.279Z,99.90
2022-08-30T22:21:51.122Z,99.90
2022-08-30T22:24:17.945Z,99.90
2022-08-30T22:26:45.848Z,99.90
2022-08-30T22:29:13.357Z,99.90
2022-08-30T22:31:41.237Z,99.90
2022-08-30T22:34:10.094Z,99.90
2022-08-30T22:36:38.267Z,99.90
2022-08-30T22:39:07.917Z,99.90
2022-08-30T22:41:35.861Z,99.90
2022-08-30T22:44:03.311Z,99.90
2022-08-30T22:46:34.567Z,99.90
2022-08-30T22:49:03.237Z,99.90
2022-08-30T22:51:30.507Z,99.90
2022-08-30T22:53:57.727Z,99.90
2022-08-30T22:56:26.344Z,99.90
2022-08-30T22:58:54.368Z,99.90
2022-08-30T23:01:46.967Z,99.90
2022-08-30T23:04:14.095Z,99.90
2022-08-30T23:06:41.499Z,99.90
2022-08-30T23:09:16.499Z,99.90
2022-08-30T23:11:43.240Z,99.90
2022-08-30T23:14:10.029Z,99.90
2022-08-30T23:16:36.917Z,99.90
2022-08-30T23:19:05.270Z,99.90
2022-08-30T23:21:32.264Z,99.90
2022-08-30T23:24:18.356Z,99.90
2022-08-30T23:27:04.954Z,99.90
2022-08-30T23:29:50.801Z,99.90
2022-08-30T23:32:36.660Z,99.90
2022-08-30T23:35:29.146Z,99.90
2022-08-30T23:38:20.362Z,99.90
2022-08-30T23:41:05.864Z,99.90
2022-08-30T23:43:51.104Z,99.90
2022-08-30T23:46:36.635Z,99.90
2022-08-30T23:49:22.615Z,99.90
2022-08-30T23:52:08.268Z,99.90
2022-08-30T23:54:54.864Z,99.90
2022-08-30T23:57:43.779Z,99.90
